Main page
METAR-TAF:

METAR-TAF

Airports :

Woodvale, England

RAF Woodvale

latitude: 53-34-54N, longitude: 003-03-20W, elevation: 11 m

METAR: missing

Time: 18:49 (17:49 UTC)

Forecast

The report was made 33 hours and 50 minutes ago, at 07:59 UTC
Forecast valid from 27 at 09 UTC to 27 at 18 UTC
Wind 14 kt from the West/Northwest
Visibility 10 km or more
Few clouds at a height of 1500 ft
Broken clouds at a height of 3000 ft
Probability 30% :
Temporary
from 27 at 09 UTC to 27 at 11 UTC
Visibility: 6000 m
Broken clouds at a height of 1200 ft
rain showers
Temporary
from 27 at 11 UTC to 27 at 18 UTC
Wind 16 kt from the Northwest with gusts up to 26 kt
Scattered clouds at a height of 2000 ft

TAF: EGOW 270759Z 2709/2718 30014KT 9999 FEW015 BKN030 PROB30 TEMPO 2709/2711 6000 SHRA BKN012 TEMPO 2711/2718 32016G26KT SCT020

Weather observations and forecasts of more than 4000 airports (METAR and TAF reports).

The available stations are represented by yellow and red dots on the map.

Hover mouse over dot to see the name of the station.

Then click to see weather observations and forecasts.

To change the map : click on the green buttons with a black cross to zoom in, on the green button with a dash to zoom out, or on the green arrows for adjacent maps.


METAR-TAF: